sensor_id;sensor_type;location;lat;lon;timestamp;pressure;altitude;pressure_sealevel;temperature;humidity
42621;BME280;28252;53.336;-6.298;2023-09-08T00:00:21;101131.34;;;25.61;100.00
42621;BME280;28252;53.336;-6.298;2023-09-08T00:00:55;101128.63;;;25.61;100.00
42621;BME280;28252;53.336;-6.298;2023-09-08T00:01:26;101125.69;;;25.62;100.00
42621;BME280;28252;53.336;-6.298;2023-09-08T00:02:01;101127.59;;;25.62;100.00
42621;BME280;28252;53.336;-6.298;2023-09-08T00:02:32;101133.88;;;25.62;100.00
42621;BME280;28252;53.336;-6.298;2023-09-08T00:03:05;101133.03;;;25.62;100.00
42621;BME280;28252;53.336;-6.298;2023-09-08T00:03:38;101130.31;;;25.62;100.00
42621;BME280;28252;53.336;-6.298;2023-09-08T00:04:11;101127.59;;;25.62;100.00
42621;BME280;28252;53.336;-6.298;2023-09-08T00:04:48;101128.41;;;25.62;100.00
42621;BME280;28252;53.336;-6.298;2023-09-08T00:05:19;101133.88;;;25.62;100.00
42621;BME280;28252;53.336;-6.298;2023-09-08T00:05:53;101126.56;;;25.63;100.00
42621;BME280;28252;53.336;-6.298;2023-09-08T00:06:28;101129.28;;;25.63;100.00
42621;BME280;28252;53.336;-6.298;2023-09-08T00:07:06;101122.13;;;25.62;100.00
42621;BME280;28252;53.336;-6.298;2023-09-08T00:07:37;101126.56;;;25.63;100.00
42621;BME280;28252;53.336;-6.298;2023-09-08T00:08:13;101122.97;;;25.62;100.00
42621;BME280;28252;53.336;-6.298;2023-09-08T00:08:46;101122.97;;;25.62;100.00
42621;BME280;28252;53.336;-6.298;2023-09-08T00:09:17;101122.13;;;25.62;100.00
42621;BME280;28252;53.336;-6.298;2023-09-08T00:09:48;101122.97;;;25.62;100.00
42621;BME280;28252;53.336;-6.298;2023-09-08T00:10:19;101120.25;;;25.62;100.00
42621;BME280;28252;53.336;-6.298;2023-09-08T00:10:53;101123.84;;;25.63;100.00
42621;BME280;28252;53.336;-6.298;2023-09-08T00:11:24;101122.13;;;25.62;100.00
42621;BME280;28252;53.336;-6.298;2023-09-08T00:11:59;101121.09;;;25.63;100.00
42621;BME280;28252;53.336;-6.298;2023-09-08T00:12:33;101122.97;;;25.62;100.00
42621;BME280;28252;53.336;-6.298;2023-09-08T00:13:07;101126.56;;;25.63;100.00
42621;BME280;28252;53.336;-6.298;2023-09-08T00:13:38;101126.56;;;25.63;100.00
42621;BME280;28252;53.336;-6.298;2023-09-08T00:14:13;101123.84;;;25.63;100.00
42621;BME280;28252;53.336;-6.298;2023-09-08T00:14:46;101117.50;;;25.62;100.00
42621;BME280;28252;53.336;-6.298;2023-09-08T00:15:17;101129.28;;;25.63;100.00
42621;BME280;28252;53.336;-6.298;2023-09-08T00:15:54;101123.84;;;25.63;100.00
42621;BME280;28252;53.336;-6.298;2023-09-08T00:16:27;101122.97;;;25.62;100.00
42621;BME280;28252;53.336;-6.298;2023-09-08T00:17:03;101118.38;;;25.63;100.00
42621;BME280;28252;53.336;-6.298;2023-09-08T00:17:37;101123.84;;;25.63;100.00
42621;BME280;28252;53.336;-6.298;2023-09-08T00:18:08;101123.84;;;25.63;100.00
42621;BME280;28252;53.336;-6.298;2023-09-08T00:18:45;101123.84;;;25.63;100.00
42621;BME280;28252;53.336;-6.298;2023-09-08T00:19:21;101120.25;;;25.62;100.00
42621;BME280;28252;53.336;-6.298;2023-09-08T00:19:54;101123.84;;;25.63;100.00
42621;BME280;28252;53.336;-6.298;2023-09-08T00:20:31;101122.13;;;25.62;100.00
42621;BME280;28252;53.336;-6.298;2023-09-08T00:21:02;101124.84;;;25.62;100.00
42621;BME280;28252;53.336;-6.298;2023-09-08T00:21:37;101123.84;;;25.63;100.00
42621;BME280;28252;53.336;-6.298;2023-09-08T00:22:11;101123.84;;;25.63;100.00
42621;BME280;28252;53.336;-6.298;2023-09-08T00:22:42;101128.22;;;25.64;100.00
42621;BME280;28252;53.336;-6.298;2023-09-08T00:23:13;101126.56;;;25.63;100.00
42621;BME280;28252;53.336;-6.298;2023-09-08T00:23:47;101121.09;;;25.63;100.00
42621;BME280;28252;53.336;-6.298;2023-09-08T00:24:20;101120.25;;;25.62;100.00
42621;BME280;28252;53.336;-6.298;2023-09-08T00:24:53;101128.41;;;25.62;100.00
42621;BME280;28252;53.336;-6.298;2023-09-08T00:25:30;101123.84;;;25.63;100.00
42621;BME280;28252;53.336;-6.298;2023-09-08T00:26:03;101129.28;;;25.63;100.00
42621;BME280;28252;53.336;-6.298;2023-09-08T00:26:39;101124.66;;;25.63;100.00
42621;BME280;28252;53.336;-6.298;2023-09-08T00:27:13;101123.84;;;25.63;100.00
42621;BME280;28252;53.336;-6.298;2023-09-08T00:27:48;101128.41;;;25.62;100.00
42621;BME280;28252;53.336;-6.298;2023-09-08T00:28:21;101126.56;;;25.63;100.00
42621;BME280;28252;53.336;-6.298;2023-09-08T00:28:57;101121.94;;;25.63;100.00
42621;BME280;28252;53.336;-6.298;2023-09-08T00:29:28;101122.13;;;25.62;100.00
42621;BME280;28252;53.336;-6.298;2023-09-08T00:30:04;101122.78;;;25.64;100.00
42621;BME280;28252;53.336;-6.298;2023-09-08T00:30:38;101124.66;;;25.63;100.00
42621;BME280;28252;53.336;-6.298;2023-09-08T00:31:11;101124.66;;;25.63;100.00
42621;BME280;28252;53.336;-6.298;2023-09-08T00:31:46;101123.84;;;25.63;100.00
42621;BME280;28252;53.336;-6.298;2023-09-08T00:32:19;101123.84;;;25.63;100.00
42621;BME280;28252;53.336;-6.298;2023-09-08T00:32:53;101119.22;;;25.63;100.00
42621;BME280;28252;53.336;-6.298;2023-09-08T00:33:28;101124.66;;;25.63;100.00
42621;BME280;28252;53.336;-6.298;2023-09-08T00:34:04;101124.66;;;25.63;100.00
42621;BME280;28252;53.336;-6.298;2023-09-08T00:34:45;101121.94;;;25.63;100.00
42621;BME280;28252;53.336;-6.298;2023-09-08T00:35:18;101126.56;;;25.63;100.00
42621;BME280;28252;53.336;-6.298;2023-09-08T00:35:54;101122.78;;;25.64;100.00
42621;BME280;28252;53.336;-6.298;2023-09-08T00:36:28;101129.28;;;25.63;100.00
42621;BME280;28252;53.336;-6.298;2023-09-08T00:37:01;101124.66;;;25.63;100.00
42621;BME280;28252;53.336;-6.298;2023-09-08T00:37:40;101123.84;;;25.63;100.00
42621;BME280;28252;53.336;-6.298;2023-09-08T00:38:15;101130.13;;;25.63;100.00
42621;BME280;28252;53.336;-6.298;2023-09-08T00:38:46;101124.66;;;25.63;100.00
42621;BME280;28252;53.336;-6.298;2023-09-08T00:39:19;101129.28;;;25.63;100.00
42621;BME280;28252;53.336;-6.298;2023-09-08T00:39:50;101123.84;;;25.63;100.00
42621;BME280;28252;53.336;-6.298;2023-09-08T00:40:23;101124.66;;;25.63;100.00
42621;BME280;28252;53.336;-6.298;2023-09-08T00:40:54;101129.28;;;25.63;100.00
42621;BME280;28252;53.336;-6.298;2023-09-08T00:41:27;101124.66;;;25.63;100.00
42621;BME280;28252;53.336;-6.298;2023-09-08T00:42:03;101123.63;;;25.64;100.00
42621;BME280;28252;53.336;-6.298;2023-09-08T00:42:39;101125.50;;;25.64;100.00
42621;BME280;28252;53.336;-6.298;2023-09-08T00:43:12;101121.09;;;25.63;100.00
42621;BME280;28252;53.336;-6.298;2023-09-08T00:43:48;101121.94;;;25.63;100.00
42621;BME280;28252;53.336;-6.298;2023-09-08T00:44:21;101119.22;;;25.63;100.00
42621;BME280;28252;53.336;-6.298;2023-09-08T00:44:55;101123.84;;;25.63;100.00
42621;BME280;28252;53.336;-6.298;2023-09-08T00:45:26;101118.38;;;25.63;100.00
42621;BME280;28252;53.336;-6.298;2023-09-08T00:46:06;101116.69;;;25.62;100.00
42621;BME280;28252;53.336;-6.298;2023-09-08T00:46:43;101123.84;;;25.63;100.00
42621;BME280;28252;53.336;-6.298;2023-09-08T00:47:16;101121.94;;;25.63;100.00
42621;BME280;28252;53.336;-6.298;2023-09-08T00:47:50;101115.66;;;25.63;100.00
42621;BME280;28252;53.336;-6.298;2023-09-08T00:48:24;101120.25;;;25.62;100.00
42621;BME280;28252;53.336;-6.298;2023-09-08T00:48:59;101118.38;;;25.63;100.00
42621;BME280;28252;53.336;-6.298;2023-09-08T00:49:38;101123.84;;;25.63;100.00
42621;BME280;28252;53.336;-6.298;2023-09-08T00:50:12;101118.38;;;25.63;100.00
42621;BME280;28252;53.336;-6.298;2023-09-08T00:50:50;101112.91;;;25.63;100.00
42621;BME280;28252;53.336;-6.298;2023-09-08T00:51:22;101116.47;;;25.63;100.00
42621;BME280;28252;53.336;-6.298;2023-09-08T00:51:57;101118.38;;;25.63;100.00
42621;BME280;28252;53.336;-6.298;2023-09-08T00:52:28;101114.59;;;25.64;100.00
42621;BME280;28252;53.336;-6.298;2023-09-08T00:53:09;101112.91;;;25.63;100.00
42621;BME280;28252;53.336;-6.298;2023-09-08T00:53:44;101111.03;;;25.63;100.00
42621;BME280;28252;53.336;-6.298;2023-09-08T00:54:17;101108.28;;;25.63;100.00
42621;BME280;28252;53.336;-6.298;2023-09-08T00:54:51;101107.47;;;25.63;100.00
42621;BME280;28252;53.336;-6.298;2023-09-08T00:55:24;101112.91;;;25.63;100.00
42621;BME280;28252;53.336;-6.298;2023-09-08T00:55:58;101106.59;;;25.62;100.00
42621;BME280;28252;53.336;-6.298;2023-09-08T00:56:35;101109.31;;;25.62;100.00
42621;BME280;28252;53.336;-6.298;2023-09-08T00:57:14;101107.47;;;25.63;100.00
42621;BME280;28252;53.336;-6.298;2023-09-08T00:57:47;101107.47;;;25.63;100.00
42621;BME280;28252;53.336;-6.298;2023-09-08T00:58:18;101104.75;;;25.63;100.00
42621;BME280;28252;53.336;-6.298;2023-09-08T00:58:54;101101.13;;;25.62;100.00
42621;BME280;28252;53.336;-6.298;2023-09-08T00:59:31;101099.28;;;25.63;100.00
42621;BME280;28252;53.336;-6.298;2023-09-08T01:00:07;101102.84;;;25.63;100.00
42621;BME280;28252;53.336;-6.298;2023-09-08T01:00:42;101100.94;;;25.64;100.00
42621;BME280;28252;53.336;-6.298;2023-09-08T01:01:13;101102.00;;;25.63;100.00
42621;BME280;28252;53.336;-6.298;2023-09-08T01:01:44;101103.69;;;25.64;100.00
42621;BME280;28252;53.336;-6.298;2023-09-08T01:02:25;101105.56;;;25.63;100.00
42621;BME280;28252;53.336;-6.298;2023-09-08T01:02:58;101098.41;;;25.62;100.00
42621;BME280;28252;53.336;-6.298;2023-09-08T01:03:32;101104.75;;;25.63;100.00
42621;BME280;28252;53.336;-6.298;2023-09-08T01:04:03;101096.56;;;25.63;100.00
42621;BME280;28252;53.336;-6.298;2023-09-08T01:04:36;101113.75;;;25.63;100.00
42621;BME280;28252;53.336;-6.298;2023-09-08T01:05:18;101102.00;;;25.63;100.00
42621;BME280;28252;53.336;-6.298;2023-09-08T01:05:50;101108.28;;;25.63;100.00
42621;BME280;28252;53.336;-6.298;2023-09-08T01:06:22;101107.47;;;25.63;100.00
42621;BME280;28252;53.336;-6.298;2023-09-08T01:07:00;101117.50;;;25.62;100.00
42621;BME280;28252;53.336;-6.298;2023-09-08T01:07:36;101106.59;;;25.62;100.00
42621;BME280;28252;53.336;-6.298;2023-09-08T01:08:10;101116.69;;;25.62;100.00
42621;BME280;28252;53.336;-6.298;2023-09-08T01:08:44;101112.91;;;25.63;100.00
42621;BME280;28252;53.336;-6.298;2023-09-08T01:09:20;101112.06;;;25.62;100.00
42621;BME280;28252;53.336;-6.298;2023-09-08T01:09:54;101109.31;;;25.62;100.00
42621;BME280;28252;53.336;-6.298;2023-09-08T01:10:34;101113.94;;;25.62;100.00
42621;BME280;28252;53.336;-6.298;2023-09-08T01:11:10;101112.91;;;25.63;100.00
42621;BME280;28252;53.336;-6.298;2023-09-08T01:11:44;101118.38;;;25.63;100.00
42621;BME280;28252;53.336;-6.298;2023-09-08T01:12:15;101111.22;;;25.62;100.00
42621;BME280;28252;53.336;-6.298;2023-09-08T01:12:54;101106.59;;;25.62;100.00
42621;BME280;28252;53.336;-6.298;2023-09-08T01:13:25;101111.22;;;25.62;100.00
42621;BME280;28252;53.336;-6.298;2023-09-08T01:13:58;101109.31;;;25.62;100.00
42621;BME280;28252;53.336;-6.298;2023-09-08T01:14:33;101113.94;;;25.62;100.00
42621;BME280;28252;53.336;-6.298;2023-09-08T01:15:07;101113.94;;;25.62;100.00
42621;BME280;28252;53.336;-6.298;2023-09-08T01:15:41;101116.69;;;25.62;100.00
42621;BME280;28252;53.336;-6.298;2023-09-08T01:16:14;101111.22;;;25.62;100.00
42621;BME280;28252;53.336;-6.298;2023-09-08T01:16:48;101117.50;;;25.62;100.00
42621;BME280;28252;53.336;-6.298;2023-09-08T01:17:22;101112.06;;;25.62;100.00
42621;BME280;28252;53.336;-6.298;2023-09-08T01:17:58;101122.13;;;25.62;100.00
42621;BME280;28252;53.336;-6.298;2023-09-08T01:18:30;101116.69;;;25.62;100.00
42621;BME280;28252;53.336;-6.298;2023-09-08T01:19:06;101118.56;;;25.61;100.00
42621;BME280;28252;53.336;-6.298;2023-09-08T01:19:40;101122.97;;;25.62;100.00
42621;BME280;28252;53.336;-6.298;2023-09-08T01:20:18;101118.38;;;25.63;100.00
42621;BME280;28252;53.336;-6.298;2023-09-08T01:25:31;101116.69;;;25.62;100.00
42621;BME280;28252;53.336;-6.298;2023-09-08T01:26:08;101110.38;;;25.61;100.00
42621;BME280;28252;53.336;-6.298;2023-09-08T01:26:42;101110.19;;;25.63;100.00
42621;BME280;28252;53.336;-6.298;2023-09-08T01:27:15;101111.22;;;25.62;100.00
42621;BME280;28252;53.336;-6.298;2023-09-08T01:27:53;101116.69;;;25.62;100.00
42621;BME280;28252;53.336;-6.298;2023-09-08T01:28:25;101110.38;;;25.61;100.00
42621;BME280;28252;53.336;-6.298;2023-09-08T01:28:59;101111.22;;;25.62;100.00
42621;BME280;28252;53.336;-6.298;2023-09-08T01:30:44;101110.38;;;25.61;100.00
42621;BME280;28252;53.336;-6.298;2023-09-08T01:31:16;101106.59;;;25.62;100.00
42621;BME280;28252;53.336;-6.298;2023-09-08T01:31:47;101105.75;;;25.62;100.00
42621;BME280;28252;53.336;-6.298;2023-09-08T01:32:20;101104.94;;;25.61;100.00
42621;BME280;28252;53.336;-6.298;2023-09-08T01:32:54;101103.03;;;25.62;100.00
42621;BME280;28252;53.336;-6.298;2023-09-08T01:33:28;101106.59;;;25.62;100.00
42621;BME280;28252;53.336;-6.298;2023-09-08T01:34:02;101098.59;;;25.61;100.00
42621;BME280;28252;53.336;-6.298;2023-09-08T01:34:41;101100.31;;;25.62;100.00
42621;BME280;28252;53.336;-6.298;2023-09-08T01:35:14;101098.59;;;25.61;100.00
42621;BME280;28252;53.336;-6.298;2023-09-08T01:35:48;101104.75;;;25.63;100.00
42621;BME280;28252;53.336;-6.298;2023-09-08T01:36:26;101099.47;;;25.61;100.00
42621;BME280;28252;53.336;-6.298;2023-09-08T01:37:02;101104.94;;;25.61;100.00
42621;BME280;28252;53.336;-6.298;2023-09-08T01:37:37;101111.22;;;25.62;100.00
42621;BME280;28252;53.336;-6.298;2023-09-08T01:38:14;101102.19;;;25.61;100.00
42621;BME280;28252;53.336;-6.298;2023-09-08T01:38:47;101109.53;;;25.61;100.00
42621;BME280;28252;53.336;-6.298;2023-09-08T01:39:18;101098.59;;;25.61;100.00
42621;BME280;28252;53.336;-6.298;2023-09-08T01:39:50;101108.69;;;25.60;100.00
42621;BME280;28252;53.336;-6.298;2023-09-08T01:40:25;101099.47;;;25.61;100.00
42621;BME280;28252;53.336;-6.298;2023-09-08T01:41:01;101103.22;;;25.60;100.00
42621;BME280;28252;53.336;-6.298;2023-09-08T01:41:39;101104.06;;;25.61;100.00
42621;BME280;28252;53.336;-6.298;2023-09-08T01:42:12;101098.59;;;25.61;100.00
42621;BME280;28252;53.336;-6.298;2023-09-08T01:42:48;101094.03;;;25.61;100.00
42621;BME280;28252;53.336;-6.298;2023-09-08T01:43:23;101092.31;;;25.60;100.00
42621;BME280;28252;53.336;-6.298;2023-09-08T01:43:56;101093.16;;;25.61;100.00
42621;BME280;28252;53.336;-6.298;2023-09-08T01:44:32;101093.16;;;25.61;100.00
42621;BME280;28252;53.336;-6.298;2023-09-08T01:45:06;101086.88;;;25.60;100.00
42621;BME280;28252;53.336;-6.298;2023-09-08T01:45:43;101087.69;;;25.61;100.00
42621;BME280;28252;53.336;-6.298;2023-09-08T01:46:18;101084.97;;;25.61;100.00
42621;BME280;28252;53.336;-6.298;2023-09-08T01:46:51;101084.13;;;25.60;100.00
42621;BME280;28252;53.336;-6.298;2023-09-08T01:47:29;101092.31;;;25.60;100.00
42621;BME280;28252;53.336;-6.298;2023-09-08T01:48:00;101092.31;;;25.60;100.00
42621;BME280;28252;53.336;-6.298;2023-09-08T01:48:34;101087.69;;;25.61;100.00
42621;BME280;28252;53.336;-6.298;2023-09-08T01:49:10;101093.16;;;25.61;100.00
42621;BME280;28252;53.336;-6.298;2023-09-08T01:49:43;101096.94;;;25.60;100.00
42621;BME280;28252;53.336;-6.298;2023-09-08T01:50:14;101098.59;;;25.61;100.00
42621;BME280;28252;53.336;-6.298;2023-09-08T01:50:52;101089.59;;;25.60;100.00
42621;BME280;28252;53.336;-6.298;2023-09-08T01:51:25;101093.16;;;25.61;100.00
42621;BME280;28252;53.336;-6.298;2023-09-08T01:51:56;101091.47;;;25.60;100.00
42621;BME280;28252;53.336;-6.298;2023-09-08T01:52:39;101093.16;;;25.61;100.00
42621;BME280;28252;53.336;-6.298;2023-09-08T01:53:12;101092.31;;;25.60;100.00
42621;BME280;28252;53.336;-6.298;2023-09-08T01:53:43;101099.66;;;25.60;100.00
42621;BME280;28252;53.336;-6.298;2023-09-08T01:54:16;101102.41;;;25.60;100.00
42621;BME280;28252;53.336;-6.298;2023-09-08T01:54:50;101093.38;;;25.59;100.00
42621;BME280;28252;53.336;-6.298;2023-09-08T01:55:28;101095.25;;;25.59;100.00
42621;BME280;28252;53.336;-6.298;2023-09-08T01:56:04;101091.47;;;25.60;100.00
42621;BME280;28252;53.336;-6.298;2023-09-08T01:56:38;101091.47;;;25.60;100.00
42621;BME280;28252;53.336;-6.298;2023-09-08T01:57:11;101085.19;;;25.59;100.00
42621;BME280;28252;53.336;-6.298;2023-09-08T01:57:44;101090.66;;;25.59;100.00
42621;BME280;28252;53.336;-6.298;2023-09-08T01:58:19;101091.47;;;25.60;100.00
42621;BME280;28252;53.336;-6.298;2023-09-08T01:58:55;101085.19;;;25.59;100.00
42621;BME280;28252;53.336;-6.298;2023-09-08T01:59:26;101081.41;;;25.60;100.00
42621;BME280;28252;53.336;-6.298;2023-09-08T02:00:00;101087.94;;;25.59;100.00
42621;BME280;28252;53.336;-6.298;2023-09-08T02:00:48;101087.94;;;25.59;100.00
42621;BME280;28252;53.336;-6.298;2023-09-08T02:01:21;101087.06;;;25.59;100.00
42621;BME280;28252;53.336;-6.298;2023-09-08T02:01:55;101096.94;;;25.60;100.00
42621;BME280;28252;53.336;-6.298;2023-09-08T02:02:26;101094.22;;;25.60;100.00
42621;BME280;28252;53.336;-6.298;2023-09-08T02:03:02;101088.94;;;25.58;100.00
42621;BME280;28252;53.336;-6.298;2023-09-08T02:03:41;101087.94;;;25.59;100.00
42621;BME280;28252;53.336;-6.298;2023-09-08T02:04:17;101085.19;;;25.59;100.00
42621;BME280;28252;53.336;-6.298;2023-09-08T02:04:50;101091.47;;;25.60;100.00
42621;BME280;28252;53.336;-6.298;2023-09-08T02:05:28;101080.56;;;25.60;100.00
42621;BME280;28252;53.336;-6.298;2023-09-08T02:06:01;101090.66;;;25.59;100.00
42621;BME280;28252;53.336;-6.298;2023-09-08T02:06:34;101083.31;;;25.60;100.00
42621;BME280;28252;53.336;-6.298;2023-09-08T02:07:07;101088.75;;;25.60;100.00
42621;BME280;28252;53.336;-6.298;2023-09-08T02:07:48;101087.94;;;25.59;100.00
42621;BME280;28252;53.336;-6.298;2023-09-08T02:08:22;101079.75;;;25.59;100.00
42621;BME280;28252;53.336;-6.298;2023-09-08T02:08:55;101091.47;;;25.60;100.00
42621;BME280;28252;53.336;-6.298;2023-09-08T02:09:36;101079.75;;;25.59;100.00
42621;BME280;28252;53.336;-6.298;2023-09-08T02:10:09;101081.59;;;25.59;100.00
42621;BME280;28252;53.336;-6.298;2023-09-08T02:10:43;101089.78;;;25.59;100.00
42621;BME280;28252;53.336;-6.298;2023-09-08T02:11:17;101079.75;;;25.59;100.00
42621;BME280;28252;53.336;-6.298;2023-09-08T02:11:52;101073.41;;;25.59;100.00
42621;BME280;28252;53.336;-6.298;2023-09-08T02:12:23;101078.03;;;25.58;100.00
42621;BME280;28252;53.336;-6.298;2023-09-08T02:12:59;101082.66;;;25.58;100.00
42621;BME280;28252;53.336;-6.298;2023-09-08T02:13:33;101077.84;;;25.60;100.00
42621;BME280;28252;53.336;-6.298;2023-09-08T02:14:09;101082.47;;;25.59;100.00
42621;BME280;28252;53.336;-6.298;2023-09-08T02:14:40;101075.31;;;25.58;100.00
42621;BME280;28252;53.336;-6.298;2023-09-08T02:15:14;101076.16;;;25.59;100.00
42621;BME280;28252;53.336;-6.298;2023-09-08T02:15:48;101078.03;;;25.58;100.00
42621;BME280;28252;53.336;-6.298;2023-09-08T02:16:21;101072.38;;;25.60;100.00
42621;BME280;28252;53.336;-6.298;2023-09-08T02:16:55;101076.16;;;25.59;100.00
42621;BME280;28252;53.336;-6.298;2023-09-08T02:17:32;101079.75;;;25.59;100.00
42621;BME280;28252;53.336;-6.298;2023-09-08T02:18:03;101071.75;;;25.58;100.00
42621;BME280;28252;53.336;-6.298;2023-09-08T02:18:39;101071.75;;;25.58;100.00
42621;BME280;28252;53.336;-6.298;2023-09-08T02:19:13;101078.88;;;25.59;100.00
42621;BME280;28252;53.336;-6.298;2023-09-08T02:19:49;101073.41;;;25.59;100.00
42621;BME280;28252;53.336;-6.298;2023-09-08T02:20:20;101073.41;;;25.59;100.00
42621;BME280;28252;53.336;-6.298;2023-09-08T02:20:56;101078.88;;;25.59;100.00
42621;BME280;28252;53.336;-6.298;2023-09-08T02:21:29;101074.47;;;25.58;100.00
42621;BME280;28252;53.336;-6.298;2023-09-08T02:22:05;101075.31;;;25.58;100.00
42621;BME280;28252;53.336;-6.298;2023-09-08T02:22:40;101082.47;;;25.59;100.00
42621;BME280;28252;53.336;-6.298;2023-09-08T02:23:15;101081.59;;;25.59;100.00
42621;BME280;28252;53.336;-6.298;2023-09-08T02:23:48;101078.03;;;25.58;100.00
42621;BME280;28252;53.336;-6.298;2023-09-08T02:24:19;101077.22;;;25.58;100.00
42621;BME280;28252;53.336;-6.298;2023-09-08T02:24:54;101079.06;;;25.57;100.00
42621;BME280;28252;53.336;-6.298;2023-09-08T02:25:29;101088.13;;;25.58;100.00
42621;BME280;28252;53.336;-6.298;2023-09-08T02:26:04;101083.50;;;25.58;100.00
42621;BME280;28252;53.336;-6.298;2023-09-08T02:26:38;101077.22;;;25.58;100.00
42621;BME280;28252;53.336;-6.298;2023-09-08T02:27:11;101082.66;;;25.58;100.00
42621;BME280;28252;53.336;-6.298;2023-09-08T02:27:42;101078.22;;;25.57;100.00
42621;BME280;28252;53.336;-6.298;2023-09-08T02:28:17;101084.53;;;25.57;100.00
42621;BME280;28252;53.336;-6.298;2023-09-08T02:28:51;101087.25;;;25.57;100.00
42621;BME280;28252;53.336;-6.298;2023-09-08T02:29:23;101088.13;;;25.58;100.00
42621;BME280;28252;53.336;-6.298;2023-09-08T02:29:57;101093.56;;;25.58;100.00
42621;BME280;28252;53.336;-6.298;2023-09-08T02:30:31;101089.97;;;25.57;100.00
42621;BME280;28252;53.336;-6.298;2023-09-08T02:31:04;101090.84;;;25.58;100.00
42621;BME280;28252;53.336;-6.298;2023-09-08T02:31:37;101093.56;;;25.58;100.00
42621;BME280;28252;53.336;-6.298;2023-09-08T02:32:12;101091.88;;;25.57;100.00
42621;BME280;28252;53.336;-6.298;2023-09-08T02:32:50;101088.13;;;25.58;100.00
42621;BME280;28252;53.336;-6.298;2023-09-08T02:33:29;101087.25;;;25.57;100.00
42621;BME280;28252;53.336;-6.298;2023-09-08T02:34:02;101084.53;;;25.57;100.00
42621;BME280;28252;53.336;-6.298;2023-09-08T02:34:36;101090.84;;;25.58;100.00
42621;BME280;28252;53.336;-6.298;2023-09-08T02:35:08;101084.72;;;25.56;100.00
42621;BME280;28252;53.336;-6.298;2023-09-08T02:35:45;101084.72;;;25.56;100.00
42621;BME280;28252;53.336;-6.298;2023-09-08T02:36:21;101087.25;;;25.57;100.00
42621;BME280;28252;53.336;-6.298;2023-09-08T02:36:59;101086.41;;;25.57;100.00
42621;BME280;28252;53.336;-6.298;2023-09-08T02:37:32;101089.97;;;25.57;100.00
42621;BME280;28252;53.336;-6.298;2023-09-08T02:38:09;101088.13;;;25.58;100.00
42621;BME280;28252;53.336;-6.298;2023-09-08T02:38:46;101086.41;;;25.57;100.00
42621;BME280;28252;53.336;-6.298;2023-09-08T02:39:22;101091.88;;;25.57;100.00
42621;BME280;28252;53.336;-6.298;2023-09-08T02:39:56;101094.59;;;25.57;100.00
42621;BME280;28252;53.336;-6.298;2023-09-08T02:40:28;101091.88;;;25.57;100.00
42621;BME280;28252;53.336;-6.298;2023-09-08T02:40:59;101091.88;;;25.57;100.00
42621;BME280;28252;53.336;-6.298;2023-09-08T02:41:34;101094.59;;;25.57;100.00
42621;BME280;28252;53.336;-6.298;2023-09-08T02:42:08;101098.34;;;25.56;100.00
42621;BME280;28252;53.336;-6.298;2023-09-08T02:42:47;101102.78;;;25.57;100.00
42621;BME280;28252;53.336;-6.298;2023-09-08T02:43:18;101095.63;;;25.56;100.00
42621;BME280;28252;53.336;-6.298;2023-09-08T02:43:54;101101.09;;;25.56;100.00
42621;BME280;28252;53.336;-6.298;2023-09-08T02:44:27;101095.63;;;25.56;100.00
42621;BME280;28252;53.336;-6.298;2023-09-08T02:45:04;101092.91;;;25.56;100.00
42621;BME280;28252;53.336;-6.298;2023-09-08T02:45:35;101102.78;;;25.57;100.00
42621;BME280;28252;53.336;-6.298;2023-09-08T02:46:10;101100.25;;;25.55;100.00
42621;BME280;28252;53.336;-6.298;2023-09-08T02:46:43;101094.78;;;25.55;100.00
42621;BME280;28252;53.336;-6.298;2023-09-08T02:47:18;101103.81;;;25.56;100.00
42621;BME280;28252;53.336;-6.298;2023-09-08T02:47:53;101095.63;;;25.56;100.00
42621;BME280;28252;53.336;-6.298;2023-09-08T02:48:24;101101.09;;;25.56;100.00
42621;BME280;28252;53.336;-6.298;2023-09-08T02:48:56;101099.41;;;25.54;100.00
42621;BME280;28252;53.336;-6.298;2023-09-08T02:49:31;101095.63;;;25.56;100.00
42621;BME280;28252;53.336;-6.298;2023-09-08T02:50:04;101093.97;;;25.54;100.00
42621;BME280;28252;53.336;-6.298;2023-09-08T02:50:39;101095.84;;;25.54;100.00
42621;BME280;28252;53.336;-6.298;2023-09-08T02:51:13;101099.41;;;25.54;100.00
42621;BME280;28252;53.336;-6.298;2023-09-08T02:51:46;101091.88;;;25.57;100.00
42621;BME280;28252;53.336;-6.298;2023-09-08T02:52:20;101093.97;;;25.54;100.00
42621;BME280;28252;53.336;-6.298;2023-09-08T02:52:51;101093.97;;;25.54;100.00
42621;BME280;28252;53.336;-6.298;2023-09-08T02:53:26;101102.97;;;25.55;100.00
42621;BME280;28252;53.336;-6.298;2023-09-08T02:54:00;101094.78;;;25.55;100.00
42621;BME280;28252;53.336;-6.298;2023-09-08T02:54:31;101099.41;;;25.54;100.00
42621;BME280;28252;53.336;-6.298;2023-09-08T02:55:04;101093.97;;;25.54;100.00
42621;BME280;28252;53.336;-6.298;2023-09-08T02:55:35;101093.97;;;25.54;100.00
42621;BME280;28252;53.336;-6.298;2023-09-08T02:56:10;101092.91;;;25.56;100.00
42621;BME280;28252;53.336;-6.298;2023-09-08T02:56:43;101090.41;;;25.54;100.00
42621;BME280;28252;53.336;-6.298;2023-09-08T02:57:14;101093.97;;;25.54;100.00
42621;BME280;28252;53.336;-6.298;2023-09-08T02:57:47;101092.06;;;25.55;100.00
42621;BME280;28252;53.336;-6.298;2023-09-08T02:58:22;101092.91;;;25.56;100.00
42621;BME280;28252;53.336;-6.298;2023-09-08T02:58:53;101088.50;;;25.54;100.00
42621;BME280;28252;53.336;-6.298;2023-09-08T02:59:26;101095.63;;;25.56;100.00
42621;BME280;28252;53.336;-6.298;2023-09-08T03:00:00;101095.00;;;25.53;100.00
42621;BME280;28252;53.336;-6.298;2023-09-08T03:00:33;101099.41;;;25.54;100.00